sensor_id;sensor_type;location;lat;lon;timestamp;temperature;humidity
42979;DHT22;28616;44.746;19.678;2023-05-10T00:00:51;10.60;99.90
42979;DHT22;28616;44.746;19.678;2023-05-10T00:03:17;10.60;99.90
42979;DHT22;28616;44.746;19.678;2023-05-10T00:05:43;10.70;99.90
42979;DHT22;28616;44.746;19.678;2023-05-10T00:08:09;10.60;99.90
42979;DHT22;28616;44.746;19.678;2023-05-10T00:10:35;10.50;99.90
42979;DHT22;28616;44.746;19.678;2023-05-10T00:13:02;10.50;99.90
42979;DHT22;28616;44.746;19.678;2023-05-10T00:15:28;10.50;99.90
42979;DHT22;28616;44.746;19.678;2023-05-10T00:17:56;10.40;99.90
42979;DHT22;28616;44.746;19.678;2023-05-10T00:20:22;10.40;99.90
42979;DHT22;28616;44.746;19.678;2023-05-10T00:22:48;10.40;99.90
42979;DHT22;28616;44.746;19.678;2023-05-10T00:25:14;10.40;99.90
42979;DHT22;28616;44.746;19.678;2023-05-10T00:27:39;10.40;99.90
42979;DHT22;28616;44.746;19.678;2023-05-10T00:30:06;10.30;99.90
42979;DHT22;28616;44.746;19.678;2023-05-10T00:32:32;10.30;99.90
42979;DHT22;28616;44.746;19.678;2023-05-10T00:34:58;10.30;99.90
42979;DHT22;28616;44.746;19.678;2023-05-10T00:37:23;10.30;99.90
42979;DHT22;28616;44.746;19.678;2023-05-10T00:39:49;10.30;99.90
42979;DHT22;28616;44.746;19.678;2023-05-10T00:42:15;10.30;99.90
42979;DHT22;28616;44.746;19.678;2023-05-10T00:44:41;10.30;99.90
42979;DHT22;28616;44.746;19.678;2023-05-10T00:47:07;10.20;99.90
42979;DHT22;28616;44.746;19.678;2023-05-10T00:49:34;10.10;99.90
42979;DHT22;28616;44.746;19.678;2023-05-10T00:52:00;10.10;99.90
42979;DHT22;28616;44.746;19.678;2023-05-10T00:54:27;10.00;99.90
42979;DHT22;28616;44.746;19.678;2023-05-10T00:56:53;10.10;99.90
42979;DHT22;28616;44.746;19.678;2023-05-10T00:59:19;10.00;99.90
42979;DHT22;28616;44.746;19.678;2023-05-10T01:01:46;10.00;99.90
42979;DHT22;28616;44.746;19.678;2023-05-10T01:04:13;10.00;99.90
42979;DHT22;28616;44.746;19.678;2023-05-10T01:06:42;9.90;99.90
42979;DHT22;28616;44.746;19.678;2023-05-10T01:09:08;9.90;99.90
42979;DHT22;28616;44.746;19.678;2023-05-10T01:11:35;9.80;99.90
42979;DHT22;28616;44.746;19.678;2023-05-10T01:14:02;9.80;99.90
42979;DHT22;28616;44.746;19.678;2023-05-10T01:16:32;9.80;99.90
42979;DHT22;28616;44.746;19.678;2023-05-10T01:19:00;9.90;99.90
42979;DHT22;28616;44.746;19.678;2023-05-10T01:21:47;9.90;99.90
42979;DHT22;28616;44.746;19.678;2023-05-10T01:24:32;9.90;99.90
42979;DHT22;28616;44.746;19.678;2023-05-10T01:32:24;9.80;99.90
42979;DHT22;28616;44.746;19.678;2023-05-10T01:35:02;9.80;99.90
42979;DHT22;28616;44.746;19.678;2023-05-10T01:37:45;9.90;99.90
42979;DHT22;28616;44.746;19.678;2023-05-10T01:40:32;9.70;99.90
42979;DHT22;28616;44.746;19.678;2023-05-10T01:43:03;9.80;99.90
42979;DHT22;28616;44.746;19.678;2023-05-10T01:45:59;9.80;99.90
42979;DHT22;28616;44.746;19.678;2023-05-10T01:48:23;9.70;99.90
42979;DHT22;28616;44.746;19.678;2023-05-10T01:50:51;9.70;99.90
42979;DHT22;28616;44.746;19.678;2023-05-10T01:53:18;9.70;99.90
42979;DHT22;28616;44.746;19.678;2023-05-10T01:55:51;9.60;99.90
42979;DHT22;28616;44.746;19.678;2023-05-10T01:58:25;9.60;99.90
42979;DHT22;28616;44.746;19.678;2023-05-10T02:00:53;9.70;99.90
42979;DHT22;28616;44.746;19.678;2023-05-10T02:03:22;9.70;99.90
42979;DHT22;28616;44.746;19.678;2023-05-10T02:05:51;9.70;99.90
42979;DHT22;28616;44.746;19.678;2023-05-10T02:08:18;9.60;99.90
42979;DHT22;28616;44.746;19.678;2023-05-10T02:10:45;9.50;99.90
42979;DHT22;28616;44.746;19.678;2023-05-10T02:13:13;9.50;99.90
42979;DHT22;28616;44.746;19.678;2023-05-10T02:15:41;9.50;99.90
42979;DHT22;28616;44.746;19.678;2023-05-10T02:18:09;9.50;99.90
42979;DHT22;28616;44.746;19.678;2023-05-10T02:20:37;9.50;99.90
42979;DHT22;28616;44.746;19.678;2023-05-10T02:23:03;9.40;99.90
42979;DHT22;28616;44.746;19.678;2023-05-10T02:25:31;9.50;99.90
42979;DHT22;28616;44.746;19.678;2023-05-10T02:28:00;9.50;99.90
42979;DHT22;28616;44.746;19.678;2023-05-10T02:30:27;9.50;99.90
42979;DHT22;28616;44.746;19.678;2023-05-10T02:32:54;9.50;99.90
42979;DHT22;28616;44.746;19.678;2023-05-10T02:35:22;9.40;99.90
42979;DHT22;28616;44.746;19.678;2023-05-10T02:37:48;9.40;99.90
42979;DHT22;28616;44.746;19.678;2023-05-10T02:40:16;9.40;99.90
42979;DHT22;28616;44.746;19.678;2023-05-10T02:42:44;9.40;99.90
42979;DHT22;28616;44.746;19.678;2023-05-10T02:45:13;9.30;99.90
42979;DHT22;28616;44.746;19.678;2023-05-10T02:47:40;9.40;99.90
42979;DHT22;28616;44.746;19.678;2023-05-10T02:50:06;9.40;99.90
42979;DHT22;28616;44.746;19.678;2023-05-10T02:53:02;9.40;99.90
42979;DHT22;28616;44.746;19.678;2023-05-10T02:55:37;9.30;99.90
42979;DHT22;28616;44.746;19.678;2023-05-10T02:58:04;9.30;99.90
42979;DHT22;28616;44.746;19.678;2023-05-10T03:00:30;9.30;99.90
42979;DHT22;28616;44.746;19.678;2023-05-10T03:02:56;9.40;99.90
42979;DHT22;28616;44.746;19.678;2023-05-10T03:05:22;9.40;99.90
42979;DHT22;28616;44.746;19.678;2023-05-10T03:07:48;9.40;99.90
42979;DHT22;28616;44.746;19.678;2023-05-10T03:10:14;9.40;99.90
42979;DHT22;28616;44.746;19.678;2023-05-10T03:13:11;9.50;99.90
42979;DHT22;28616;44.746;19.678;2023-05-10T03:16:04;9.50;99.90
42979;DHT22;28616;44.746;19.678;2023-05-10T03:18:50;9.50;99.90
42979;DHT22;28616;44.746;19.678;2023-05-10T03:21:22;9.40;99.90
42979;DHT22;28616;44.746;19.678;2023-05-10T03:23:54;9.50;99.90
42979;DHT22;28616;44.746;19.678;2023-05-10T03:26:26;9.50;99.90
42979;DHT22;28616;44.746;19.678;2023-05-10T03:28:52;9.40;99.90
42979;DHT22;28616;44.746;19.678;2023-05-10T03:31:19;9.40;99.90
42979;DHT22;28616;44.746;19.678;2023-05-10T03:33:48;9.60;99.90
42979;DHT22;28616;44.746;19.678;2023-05-10T03:36:14;9.60;99.90
42979;DHT22;28616;44.746;19.678;2023-05-10T03:38:40;9.60;99.90
42979;DHT22;28616;44.746;19.678;2023-05-10T03:41:06;9.50;99.90
42979;DHT22;28616;44.746;19.678;2023-05-10T03:43:32;9.50;99.90
42979;DHT22;28616;44.746;19.678;2023-05-10T03:45:57;9.40;99.90
42979;DHT22;28616;44.746;19.678;2023-05-10T03:48:23;9.40;99.90
42979;DHT22;28616;44.746;19.678;2023-05-10T03:50:49;9.40;99.90
42979;DHT22;28616;44.746;19.678;2023-05-10T03:53:15;9.40;99.90
42979;DHT22;28616;44.746;19.678;2023-05-10T03:55:41;9.40;99.90
42979;DHT22;28616;44.746;19.678;2023-05-10T03:58:07;9.50;99.90
42979;DHT22;28616;44.746;19.678;2023-05-10T04:00:36;9.60;99.90
42979;DHT22;28616;44.746;19.678;2023-05-10T04:03:02;9.60;99.90
42979;DHT22;28616;44.746;19.678;2023-05-10T04:05:29;9.60;99.90
42979;DHT22;28616;44.746;19.678;2023-05-10T04:07:55;9.70;99.90
42979;DHT22;28616;44.746;19.678;2023-05-10T04:10:20;9.80;99.90
42979;DHT22;28616;44.746;19.678;2023-05-10T04:12:46;9.90;99.90
42979;DHT22;28616;44.746;19.678;2023-05-10T04:15:12;10.00;99.90
42979;DHT22;28616;44.746;19.678;2023-05-10T04:17:38;10.00;99.90
42979;DHT22;28616;44.746;19.678;2023-05-10T04:20:04;10.10;99.90
42979;DHT22;28616;44.746;19.678;2023-05-10T04:22:31;10.30;99.90
42979;DHT22;28616;44.746;19.678;2023-05-10T04:24:57;10.30;99.90
42979;DHT22;28616;44.746;19.678;2023-05-10T04:27:23;10.40;99.90
42979;DHT22;28616;44.746;19.678;2023-05-10T04:29:48;10.40;99.90
42979;DHT22;28616;44.746;19.678;2023-05-10T04:32:14;10.50;99.90
42979;DHT22;28616;44.746;19.678;2023-05-10T04:34:41;10.60;99.90
42979;DHT22;28616;44.746;19.678;2023-05-10T04:37:07;10.70;99.90
42979;DHT22;28616;44.746;19.678;2023-05-10T04:39:33;10.80;99.90
42979;DHT22;28616;44.746;19.678;2023-05-10T04:41:58;10.90;99.90
42979;DHT22;28616;44.746;19.678;2023-05-10T04:44:24;11.00;99.90
42979;DHT22;28616;44.746;19.678;2023-05-10T04:46:50;11.10;99.90
42979;DHT22;28616;44.746;19.678;2023-05-10T04:49:16;11.20;99.90
42979;DHT22;28616;44.746;19.678;2023-05-10T04:51:42;11.30;99.90
42979;DHT22;28616;44.746;19.678;2023-05-10T04:54:07;11.40;99.90
42979;DHT22;28616;44.746;19.678;2023-05-10T04:56:33;11.50;99.90
42979;DHT22;28616;44.746;19.678;2023-05-10T04:58:59;11.60;99.90
42979;DHT22;28616;44.746;19.678;2023-05-10T05:01:25;11.70;99.90
42979;DHT22;28616;44.746;19.678;2023-05-10T05:03:51;11.80;99.90
42979;DHT22;28616;44.746;19.678;2023-05-10T05:06:18;11.90;99.90
42979;DHT22;28616;44.746;19.678;2023-05-10T05:08:44;12.00;99.90
42979;DHT22;28616;44.746;19.678;2023-05-10T05:11:09;12.10;99.90
42979;DHT22;28616;44.746;19.678;2023-05-10T05:13:35;12.10;99.90
42979;DHT22;28616;44.746;19.678;2023-05-10T05:16:02;12.20;99.90
42979;DHT22;28616;44.746;19.678;2023-05-10T05:18:28;12.40;99.90
42979;DHT22;28616;44.746;19.678;2023-05-10T05:20:54;12.50;99.90
42979;DHT22;28616;44.746;19.678;2023-05-10T05:23:20;12.60;99.90
42979;DHT22;28616;44.746;19.678;2023-05-10T05:25:46;12.70;99.90
42979;DHT22;28616;44.746;19.678;2023-05-10T05:28:12;12.70;99.90
42979;DHT22;28616;44.746;19.678;2023-05-10T05:30:38;12.80;99.90
42979;DHT22;28616;44.746;19.678;2023-05-10T05:33:03;12.90;99.90
42979;DHT22;28616;44.746;19.678;2023-05-10T05:35:29;13.00;99.90
42979;DHT22;28616;44.746;19.678;2023-05-10T05:37:55;13.10;99.90
42979;DHT22;28616;44.746;19.678;2023-05-10T05:40:21;13.20;99.90
42979;DHT22;28616;44.746;19.678;2023-05-10T05:42:47;13.30;99.90
42979;DHT22;28616;44.746;19.678;2023-05-10T05:45:13;13.40;99.90
42979;DHT22;28616;44.746;19.678;2023-05-10T05:47:39;13.70;99.90
42979;DHT22;28616;44.746;19.678;2023-05-10T05:50:05;13.70;99.90
42979;DHT22;28616;44.746;19.678;2023-05-10T05:52:31;13.90;99.90
42979;DHT22;28616;44.746;19.678;2023-05-10T05:54:57;13.90;99.90
42979;DHT22;28616;44.746;19.678;2023-05-10T05:57:23;14.00;99.90
42979;DHT22;28616;44.746;19.678;2023-05-10T05:59:49;14.10;99.90
42979;DHT22;28616;44.746;19.678;2023-05-10T06:02:14;14.20;99.90
42979;DHT22;28616;44.746;19.678;2023-05-10T06:04:40;14.20;99.90
42979;DHT22;28616;44.746;19.678;2023-05-10T06:07:06;14.20;99.90
42979;DHT22;28616;44.746;19.678;2023-05-10T06:09:32;14.30;99.90
42979;DHT22;28616;44.746;19.678;2023-05-10T06:11:57;14.40;99.90
42979;DHT22;28616;44.746;19.678;2023-05-10T06:14:23;14.60;99.90
42979;DHT22;28616;44.746;19.678;2023-05-10T06:16:49;14.60;99.90
42979;DHT22;28616;44.746;19.678;2023-05-10T06:19:15;14.60;99.90
42979;DHT22;28616;44.746;19.678;2023-05-10T06:21:41;14.80;99.90
42979;DHT22;28616;44.746;19.678;2023-05-10T06:24:06;15.00;99.90
42979;DHT22;28616;44.746;19.678;2023-05-10T06:26:33;14.90;99.90
42979;DHT22;28616;44.746;19.678;2023-05-10T06:32:15;15.00;99.90
42979;DHT22;28616;44.746;19.678;2023-05-10T06:34:41;15.00;99.90
42979;DHT22;28616;44.746;19.678;2023-05-10T06:37:08;15.20;99.90
42979;DHT22;28616;44.746;19.678;2023-05-10T06:39:34;15.20;99.90
42979;DHT22;28616;44.746;19.678;2023-05-10T06:42:00;15.20;99.90
42979;DHT22;28616;44.746;19.678;2023-05-10T06:44:29;15.40;99.90
42979;DHT22;28616;44.746;19.678;2023-05-10T06:46:55;15.60;99.90
42979;DHT22;28616;44.746;19.678;2023-05-10T06:49:21;15.60;99.90
42979;DHT22;28616;44.746;19.678;2023-05-10T06:51:47;15.80;99.90
42979;DHT22;28616;44.746;19.678;2023-05-10T06:57:54;15.90;99.90
42979;DHT22;28616;44.746;19.678;2023-05-10T07:00:19;16.00;99.90
42979;DHT22;28616;44.746;19.678;2023-05-10T07:02:46;16.10;99.90
42979;DHT22;28616;44.746;19.678;2023-05-10T07:05:13;16.10;99.90
42979;DHT22;28616;44.746;19.678;2023-05-10T07:07:39;16.20;99.90
42979;DHT22;28616;44.746;19.678;2023-05-10T07:10:05;16.20;99.90
42979;DHT22;28616;44.746;19.678;2023-05-10T07:12:32;16.30;99.90
42979;DHT22;28616;44.746;19.678;2023-05-10T07:14:58;16.40;99.90
42979;DHT22;28616;44.746;19.678;2023-05-10T07:17:24;16.50;99.90
42979;DHT22;28616;44.746;19.678;2023-05-10T07:19:50;16.60;99.90
42979;DHT22;28616;44.746;19.678;2023-05-10T07:22:16;16.70;99.90
42979;DHT22;28616;44.746;19.678;2023-05-10T07:24:42;16.80;99.90
42979;DHT22;28616;44.746;19.678;2023-05-10T07:27:08;16.80;99.50
42979;DHT22;28616;44.746;19.678;2023-05-10T07:29:35;16.80;99.80
42979;DHT22;28616;44.746;19.678;2023-05-10T07:32:00;16.90;98.60
42979;DHT22;28616;44.746;19.678;2023-05-10T07:34:26;17.20;98.80
42979;DHT22;28616;44.746;19.678;2023-05-10T07:36:53;17.10;97.50
42979;DHT22;28616;44.746;19.678;2023-05-10T07:39:18;17.10;97.30
42979;DHT22;28616;44.746;19.678;2023-05-10T07:41:46;17.10;97.00
42979;DHT22;28616;44.746;19.678;2023-05-10T07:44:11;17.40;98.00
42979;DHT22;28616;44.746;19.678;2023-05-10T07:46:37;17.50;96.30
42979;DHT22;28616;44.746;19.678;2023-05-10T07:49:03;17.70;95.60
42979;DHT22;28616;44.746;19.678;2023-05-10T07:51:29;17.50;94.50
42979;DHT22;28616;44.746;19.678;2023-05-10T07:53:55;17.50;95.40
42979;DHT22;28616;44.746;19.678;2023-05-10T07:56:26;17.80;95.80
42979;DHT22;28616;44.746;19.678;2023-05-10T07:58:55;18.10;94.00
42979;DHT22;28616;44.746;19.678;2023-05-10T08:01:21;18.20;92.70
42979;DHT22;28616;44.746;19.678;2023-05-10T08:03:47;18.30;92.40
42979;DHT22;28616;44.746;19.678;2023-05-10T08:06:14;18.20;92.60
42979;DHT22;28616;44.746;19.678;2023-05-10T08:08:41;18.60;92.40
42979;DHT22;28616;44.746;19.678;2023-05-10T08:11:07;18.20;90.40
42979;DHT22;28616;44.746;19.678;2023-05-10T08:13:33;18.00;90.70
42979;DHT22;28616;44.746;19.678;2023-05-10T08:15:58;18.10;92.00
42979;DHT22;28616;44.746;19.678;2023-05-10T08:18:24;18.00;91.60
42979;DHT22;28616;44.746;19.678;2023-05-10T08:20:50;18.20;91.70
42979;DHT22;28616;44.746;19.678;2023-05-10T08:23:16;18.40;91.10
42979;DHT22;28616;44.746;19.678;2023-05-10T08:25:42;18.50;90.90
42979;DHT22;28616;44.746;19.678;2023-05-10T08:28:07;18.60;89.00
42979;DHT22;28616;44.746;19.678;2023-05-10T08:30:33;18.50;88.40
42979;DHT22;28616;44.746;19.678;2023-05-10T08:32:59;18.60;90.10
42979;DHT22;28616;44.746;19.678;2023-05-10T08:35:25;18.70;88.90
42979;DHT22;28616;44.746;19.678;2023-05-10T08:37:51;18.70;87.70
42979;DHT22;28616;44.746;19.678;2023-05-10T08:40:19;18.90;87.10
42979;DHT22;28616;44.746;19.678;2023-05-10T08:42:54;19.20;87.70
42979;DHT22;28616;44.746;19.678;2023-05-10T08:45:23;19.50;86.70
42979;DHT22;28616;44.746;19.678;2023-05-10T08:47:49;19.40;82.20
42979;DHT22;28616;44.746;19.678;2023-05-10T08:50:18;19.60;82.80
42979;DHT22;28616;44.746;19.678;2023-05-10T08:52:47;19.70;81.80
42979;DHT22;28616;44.746;19.678;2023-05-10T08:57:40;19.90;83.60
42979;DHT22;28616;44.746;19.678;2023-05-10T09:00:06;19.80;79.00
42979;DHT22;28616;44.746;19.678;2023-05-10T09:02:34;19.70;78.00
42979;DHT22;28616;44.746;19.678;2023-05-10T09:05:00;19.90;79.20
42979;DHT22;28616;44.746;19.678;2023-05-10T09:07:27;20.00;77.00
42979;DHT22;28616;44.746;19.678;2023-05-10T09:09:53;19.90;75.60
42979;DHT22;28616;44.746;19.678;2023-05-10T09:12:19;20.10;77.40
42979;DHT22;28616;44.746;19.678;2023-05-10T09:17:12;20.20;74.10
42979;DHT22;28616;44.746;19.678;2023-05-10T09:22:04;20.40;73.70
42979;DHT22;28616;44.746;19.678;2023-05-10T09:24:30;20.40;75.70
42979;DHT22;28616;44.746;19.678;2023-05-10T09:26:57;20.40;71.80
42979;DHT22;28616;44.746;19.678;2023-05-10T09:29:23;20.30;72.90
42979;DHT22;28616;44.746;19.678;2023-05-10T09:31:51;20.00;73.00
42979;DHT22;28616;44.746;19.678;2023-05-10T09:34:28;20.30;74.70
42979;DHT22;28616;44.746;19.678;2023-05-10T09:37:00;20.10;71.80
42979;DHT22;28616;44.746;19.678;2023-05-10T09:39:35;20.30;71.90
42979;DHT22;28616;44.746;19.678;2023-05-10T09:42:08;20.40;73.50
42979;DHT22;28616;44.746;19.678;2023-05-10T09:44:35;20.80;73.10
42979;DHT22;28616;44.746;19.678;2023-05-10T09:47:02;20.80;70.80
42979;DHT22;28616;44.746;19.678;2023-05-10T09:49:28;20.80;70.50
42979;DHT22;28616;44.746;19.678;2023-05-10T09:52:07;21.10;69.80
42979;DHT22;28616;44.746;19.678;2023-05-10T09:54:34;21.30;68.80
42979;DHT22;28616;44.746;19.678;2023-05-10T09:57:00;21.20;70.00
42979;DHT22;28616;44.746;19.678;2023-05-10T09:59:27;21.10;68.90
42979;DHT22;28616;44.746;19.678;2023-05-10T10:01:56;21.10;68.50
42979;DHT22;28616;44.746;19.678;2023-05-10T10:04:22;20.60;68.40
42979;DHT22;28616;44.746;19.678;2023-05-10T10:06:59;20.90;71.30
42979;DHT22;28616;44.746;19.678;2023-05-10T10:09:26;20.80;67.60
42979;DHT22;28616;44.746;19.678;2023-05-10T10:11:54;21.20;68.70
42979;DHT22;28616;44.746;19.678;2023-05-10T10:14:20;20.60;68.00
42979;DHT22;28616;44.746;19.678;2023-05-10T10:16:47;20.80;67.00
42979;DHT22;28616;44.746;19.678;2023-05-10T10:19:14;20.30;67.30
42979;DHT22;28616;44.746;19.678;2023-05-10T10:21:40;20.60;67.80
42979;DHT22;28616;44.746;19.678;2023-05-10T10:24:06;20.70;67.90
42979;DHT22;28616;44.746;19.678;2023-05-10T10:26:35;21.00;68.10
42979;DHT22;28616;44.746;19.678;2023-05-10T10:32:35;21.20;68.60
42979;DHT22;28616;44.746;19.678;2023-05-10T10:35:03;21.30;66.70
42979;DHT22;28616;44.746;19.678;2023-05-10T10:37:46;21.20;67.10
42979;DHT22;28616;44.746;19.678;2023-05-10T10:40:29;21.10;66.30
42979;DHT22;28616;44.746;19.678;2023-05-10T10:42:56;21.30;66.70
42979;DHT22;28616;44.746;19.678;2023-05-10T10:45:23;21.40;65.90
42979;DHT22;28616;44.746;19.678;2023-05-10T10:47:49;21.30;64.50
42979;DHT22;28616;44.746;19.678;2023-05-10T10:55:20;21.70;62.20
42979;DHT22;28616;44.746;19.678;2023-05-10T10:57:53;21.50;64.30
42979;DHT22;28616;44.746;19.678;2023-05-10T11:00:29;22.00;63.70
42979;DHT22;28616;44.746;19.678;2023-05-10T11:03:15;22.10;64.10
42979;DHT22;28616;44.746;19.678;2023-05-10T11:05:48;22.00;62.80
42979;DHT22;28616;44.746;19.678;2023-05-10T11:08:18;21.70;62.60
42979;DHT22;28616;44.746;19.678;2023-05-10T11:11:06;21.60;62.70
42979;DHT22;28616;44.746;19.678;2023-05-10T11:13:46;21.20;62.40
42979;DHT22;28616;44.746;19.678;2023-05-10T11:16:19;21.00;63.90
42979;DHT22;28616;44.746;19.678;2023-05-10T11:19:12;21.30;65.40
42979;DHT22;28616;44.746;19.678;2023-05-10T11:21:49;20.70;64.20
42979;DHT22;28616;44.746;19.678;2023-05-10T11:24:20;21.00;65.00
42979;DHT22;28616;44.746;19.678;2023-05-10T11:26:49;21.40;63.40
42979;DHT22;28616;44.746;19.678;2023-05-10T11:29:16;21.20;63.30
42979;DHT22;28616;44.746;19.678;2023-05-10T11:31:43;21.80;62.90
42979;DHT22;28616;44.746;19.678;2023-05-10T14:23:38;22.80;64.30
42979;DHT22;28616;44.746;19.678;2023-05-10T14:28:30;22.60;55.30
42979;DHT22;28616;44.746;19.678;2023-05-10T14:30:56;22.20;54.90
42979;DHT22;28616;44.746;19.678;2023-05-10T14:33:22;22.40;55.20
42979;DHT22;28616;44.746;19.678;2023-05-10T14:35:48;22.60;54.40
42979;DHT22;28616;44.746;19.678;2023-05-10T14:38:14;22.70;55.90
42979;DHT22;28616;44.746;19.678;2023-05-10T14:40:40;22.60;54.50
42979;DHT22;28616;44.746;19.678;2023-05-10T14:45:32;22.30;55.00
42979;DHT22;28616;44.746;19.678;2023-05-10T14:47:58;22.50;55.30
42979;DHT22;28616;44.746;19.678;2023-05-10T14:52:50;22.60;55.10
42979;DHT22;28616;44.746;19.678;2023-05-10T14:55:16;22.10;54.60
42979;DHT22;28616;44.746;19.678;2023-05-10T14:57:42;22.30;55.40
42979;DHT22;28616;44.746;19.678;2023-05-10T15:00:10;22.30;55.30
42979;DHT22;28616;44.746;19.678;2023-05-10T15:02:36;22.10;54.10
42979;DHT22;28616;44.746;19.678;2023-05-10T15:05:02;22.10;55.10
42979;DHT22;28616;44.746;19.678;2023-05-10T15:07:28;22.00;54.70
42979;DHT22;28616;44.746;19.678;2023-05-10T15:09:53;22.20;56.20
42979;DHT22;28616;44.746;19.678;2023-05-10T15:12:19;22.20;55.50
42979;DHT22;28616;44.746;19.678;2023-05-10T15:14:45;21.90;54.70
42979;DHT22;28616;44.746;19.678;2023-05-10T15:17:11;21.80;54.70
42979;DHT22;28616;44.746;19.678;2023-05-10T15:19:37;21.80;55.00
42979;DHT22;28616;44.746;19.678;2023-05-10T15:22:04;21.80;55.70
42979;DHT22;28616;44.746;19.678;2023-05-10T15:24:31;21.60;55.80
42979;DHT22;28616;44.746;19.678;2023-05-10T15:26:57;21.40;55.80
42979;DHT22;28616;44.746;19.678;2023-05-10T15:29:22;21.50;56.60
42979;DHT22;28616;44.746;19.678;2023-05-10T15:31:49;21.60;56.70
42979;DHT22;28616;44.746;19.678;2023-05-10T15:34:16;21.60;56.00
42979;DHT22;28616;44.746;19.678;2023-05-10T15:36:43;21.40;56.30
42979;DHT22;28616;44.746;19.678;2023-05-10T15:39:10;21.30;56.30
42979;DHT22;28616;44.746;19.678;2023-05-10T15:41:36;21.00;56.90
42979;DHT22;28616;44.746;19.678;2023-05-10T15:44:02;20.90;57.00
42979;DHT22;28616;44.746;19.678;2023-05-10T15:46:28;20.70;57.30
42979;DHT22;28616;44.746;19.678;2023-05-10T15:48:54;20.70;57.80
42979;DHT22;28616;44.746;19.678;2023-05-10T15:51:20;20.50;57.20
42979;DHT22;28616;44.746;19.678;2023-05-10T15:53:46;20.40;58.10
42979;DHT22;28616;44.746;19.678;2023-05-10T15:56:12;20.50;58.30
42979;DHT22;28616;44.746;19.678;2023-05-10T15:58:39;20.60;58.30
42979;DHT22;28616;44.746;19.678;2023-05-10T16:01:05;20.50;58.00
42979;DHT22;28616;44.746;19.678;2023-05-10T16:03:31;20.30;58.10
42979;DHT22;28616;44.746;19.678;2023-05-10T16:05:57;20.20;58.80
42979;DHT22;28616;44.746;19.678;2023-05-10T16:08:23;20.10;58.40
42979;DHT22;28616;44.746;19.678;2023-05-10T16:10:50;20.00;58.80
42979;DHT22;28616;44.746;19.678;2023-05-10T16:13:16;20.00;59.90
42979;DHT22;28616;44.746;19.678;2023-05-10T16:15:42;19.70;59.90
42979;DHT22;28616;44.746;19.678;2023-05-10T16:18:08;19.50;59.90
42979;DHT22;28616;44.746;19.678;2023-05-10T16:20:33;19.20;60.40
42979;DHT22;28616;44.746;19.678;2023-05-10T16:23:04;19.20;61.50
42979;DHT22;28616;44.746;19.678;2023-05-10T16:25:30;19.10;61.60
42979;DHT22;28616;44.746;19.678;2023-05-10T16:27:58;18.90;62.40
42979;DHT22;28616;44.746;19.678;2023-05-10T16:30:24;18.80;62.60
42979;DHT22;28616;44.746;19.678;2023-05-10T16:32:52;18.70;63.00
42979;DHT22;28616;44.746;19.678;2023-05-10T16:35:18;18.70;63.30
42979;DHT22;28616;44.746;19.678;2023-05-10T16:37:44;18.70;63.70
42979;DHT22;28616;44.746;19.678;2023-05-10T16:40:10;18.60;63.80
42979;DHT22;28616;44.746;19.678;2023-05-10T16:42:35;18.60;64.10
42979;DHT22;28616;44.746;19.678;2023-05-10T16:45:02;18.60;64.80
42979;DHT22;28616;44.746;19.678;2023-05-10T16:47:39;18.50;64.50
42979;DHT22;28616;44.746;19.678;2023-05-10T16:50:06;18.30;64.60
42979;DHT22;28616;44.746;19.678;2023-05-10T16:52:33;18.30;65.00
42979;DHT22;28616;44.746;19.678;2023-05-10T16:54:59;18.20;65.70
42979;DHT22;28616;44.746;19.678;2023-05-10T16:57:26;18.10;64.70
42979;DHT22;28616;44.746;19.678;2023-05-10T16:59:52;18.10;65.00
42979;DHT22;28616;44.746;19.678;2023-05-10T17:02:22;18.00;65.50
42979;DHT22;28616;44.746;19.678;2023-05-10T17:04:48;18.00;65.40
42979;DHT22;28616;44.746;19.678;2023-05-10T17:07:14;17.90;65.60
42979;DHT22;28616;44.746;19.678;2023-05-10T17:09:43;17.80;65.80
42979;DHT22;28616;44.746;19.678;2023-05-10T17:12:09;17.80;65.80
42979;DHT22;28616;44.746;19.678;2023-05-10T17:14:36;17.70;66.20
42979;DHT22;28616;44.746;19.678;2023-05-10T17:17:02;17.70;67.10
42979;DHT22;28616;44.746;19.678;2023-05-10T17:19:28;17.60;67.30
42979;DHT22;28616;44.746;19.678;2023-05-10T17:21:54;17.50;67.30
42979;DHT22;28616;44.746;19.678;2023-05-10T17:24:20;17.60;68.30
42979;DHT22;28616;44.746;19.678;2023-05-10T17:26:45;17.50;68.30
42979;DHT22;28616;44.746;19.678;2023-05-10T17:29:11;17.40;68.90
42979;DHT22;28616;44.746;19.678;2023-05-10T17:31:39;17.30;68.40
42979;DHT22;28616;44.746;19.678;2023-05-10T17:34:05;17.30;68.80
42979;DHT22;28616;44.746;19.678;2023-05-10T17:36:30;17.20;69.20
42979;DHT22;28616;44.746;19.678;2023-05-10T17:38:58;17.10;69.70
42979;DHT22;28616;44.746;19.678;2023-05-10T17:41:24;17.00;69.90
42979;DHT22;28616;44.746;19.678;2023-05-10T17:43:49;16.90;69.80
42979;DHT22;28616;44.746;19.678;2023-05-10T17:46:15;16.80;70.20
42979;DHT22;28616;44.746;19.678;2023-05-10T17:48:42;16.80;70.70
42979;DHT22;28616;44.746;19.678;2023-05-10T17:51:08;16.70;70.50
42979;DHT22;28616;44.746;19.678;2023-05-10T17:53:33;16.70;71.30
42979;DHT22;28616;44.746;19.678;2023-05-10T17:56:00;16.50;70.90
42979;DHT22;28616;44.746;19.678;2023-05-10T17:58:26;16.50;71.60
42979;DHT22;28616;44.746;19.678;2023-05-10T18:00:52;16.50;72.00
42979;DHT22;28616;44.746;19.678;2023-05-10T18:03:19;16.40;72.10
42979;DHT22;28616;44.746;19.678;2023-05-10T18:05:46;16.30;72.00
42979;DHT22;28616;44.746;19.678;2023-05-10T18:08:12;16.30;72.60
42979;DHT22;28616;44.746;19.678;2023-05-10T18:10:38;16.30;72.50
42979;DHT22;28616;44.746;19.678;2023-05-10T18:13:04;16.20;72.50
42979;DHT22;28616;44.746;19.678;2023-05-10T18:15:33;16.20;73.00
42979;DHT22;28616;44.746;19.678;2023-05-10T18:18:03;16.20;73.20
42979;DHT22;28616;44.746;19.678;2023-05-10T18:20:30;16.10;73.20
42979;DHT22;28616;44.746;19.678;2023-05-10T18:22:56;16.10;73.30
42979;DHT22;28616;44.746;19.678;2023-05-10T18:25:23;16.10;73.50
42979;DHT22;28616;44.746;19.678;2023-05-10T18:27:49;16.00;74.00
42979;DHT22;28616;44.746;19.678;2023-05-10T18:30:15;16.00;74.20
42979;DHT22;28616;44.746;19.678;2023-05-10T18:32:41;16.00;74.40
42979;DHT22;28616;44.746;19.678;2023-05-10T18:35:07;15.90;74.50
42979;DHT22;28616;44.746;19.678;2023-05-10T18:37:34;15.90;75.20
42979;DHT22;28616;44.746;19.678;2023-05-10T18:39:59;15.90;74.90
42979;DHT22;28616;44.746;19.678;2023-05-10T18:42:25;15.90;76.00
42979;DHT22;28616;44.746;19.678;2023-05-10T18:44:53;15.90;75.60
42979;DHT22;28616;44.746;19.678;2023-05-10T18:47:18;15.90;75.40